Terminal Aerodrome Forecast
Issued by NWS La Crosse, WI

Home | Current Version | Previous Version | Text Only | Print | Product List | Glossary On
Versions: 1 2 3 4 5 6 7 8 9 10 11 12 13 14 15 16 17 18 19 20 21 22 23 24 25 26
000
FTUS43 KARX 280525
TAFLSE
TAF
KLSE 280525Z 2806/2906 16006KT P6SM SCT250 WS020/19040KT
     FM281100 16009KT 6SM -SHRA VCTS OVC080CB
      TEMPO 2811/2815 27025KT 2SM TSRA BKN025CB
     FM281600 18013G21KT P6SM VCSH BKN020
     FM282200 20011KT P6SM VCTS OVC035CB
     FM290000 21011KT P6SM OVC035=

USA.gov is the U.S. government's official web portal to all federal, state and local government web resources and services.